Pascagoula, MS

5:19 PM CDT on May 27, 2015 (GMT -0500)
Sea Breeze | | Change Station
CLOSE
Current Station
Personal Weather Station
Location: Pascagoula, MS
Elevation: 12 ft
Nearby Weather Stations

Elev 12 ft 30.35 °N, 88.52 °W | Updated 4 minutes ago

Partly Cloudy
Partly Cloudy
79.2 °F
Feels Like 84 °F
N
0.0
Wind Variable Wind from North
Gusts 0.0 mph

Today
High -- | Low -- °F
--% Chance of Precip.
Yesterday
High -- | Low -- °F
Precip. -- in
5:54 AM 7:48 PM
Waxing Gibbous, 70% visible
Pressure 30.12 in
Visibility 10.0 miles
Clouds Few 8500 ft
Heat Index 84 °F
Dew Point 77 °F
Humidity 92%
Rainfall 0.00 in
Snow Depth Not available.
UV 4 out of 12
Pollen 1.50 out of 12
Air Quality Not available.
Flu Activity No Activity
METAR KPQL 272153Z 34005KT 10SM FEW085 26/21 A3011 RMK AO2 RAB02E15 SLP197 P0000 T02560211

More Conditions Fewer Conditions

Pressure 30.12 in
Visibility 10.0 miles
Clouds Few 8500 ft
Heat Index 84 °F
Dew Point 77 °F
Humidity 92%
Rainfall 0.00 in
Snow Depth Not available.
UV 4 out of 12
Pollen 1.50 out of 12
Air Quality Not available.
Flu Activity No Activity
METAR KPQL 272153Z 34005KT 10SM FEW085 26/21 A3011 RMK AO2 RAB02E15 SLP197 P0000 T02560211

More Conditions Fewer Conditions

10-Day Weather Forecast

Almanac

Astronomy

May. 27, 2015 Rise Set
Actual Time
Civil Twilight
Nautical Twilight
Astronomical Twilight
Moon
Length of Visible Light
Length of Day
Tomorrow will be .
, % of the Moon is Illuminated

Today's Extremes

State Highs State Lows

Community

WunderPhotos

Upload Photos

1,824,809 photos uploaded!

WunderBlogs® & News

Nearby

Air Quality

  Air Quality AQ Index Pollutant
Not available.

Snow Depth

Station Depth Elevation

Earthquake Activity

City Distance Mag. Time & Date
Minimum magnitude displayed is 2.5.

Coastal Water Temperatures

Place Temperature

Stations

Nearby Weather Stations

Station Location Temp. Windchill Dew Point Humidity Wind Precip. Elev Updated Type